sensor_id;sensor_type;location;lat;lon;timestamp;P1;durP1;ratioP1;P2;durP2;ratioP2
22922;SDS011;11627;51.322;22.816;2023-01-08T00:00:47;35.22;;;15.43;;
22922;SDS011;11627;51.322;22.816;2023-01-08T00:03:14;33.83;;;15.15;;
22922;SDS011;11627;51.322;22.816;2023-01-08T00:05:40;31.80;;;15.18;;
22922;SDS011;11627;51.322;22.816;2023-01-08T00:08:07;34.80;;;16.13;;
22922;SDS011;11627;51.322;22.816;2023-01-08T00:10:36;32.22;;;15.00;;
22922;SDS011;11627;51.322;22.816;2023-01-08T00:13:02;32.85;;;15.60;;
22922;SDS011;11627;51.322;22.816;2023-01-08T00:15:29;37.58;;;15.90;;
22922;SDS011;11627;51.322;22.816;2023-01-08T00:17:57;33.65;;;14.70;;
22922;SDS011;11627;51.322;22.816;2023-01-08T00:20:23;30.40;;;14.73;;
22922;SDS011;11627;51.322;22.816;2023-01-08T00:22:49;37.97;;;15.35;;
22922;SDS011;11627;51.322;22.816;2023-01-08T00:25:15;36.13;;;15.63;;
22922;SDS011;11627;51.322;22.816;2023-01-08T00:27:41;39.40;;;17.38;;
22922;SDS011;11627;51.322;22.816;2023-01-08T00:30:08;33.35;;;15.35;;
22922;SDS011;11627;51.322;22.816;2023-01-08T00:32:34;38.20;;;17.73;;
22922;SDS011;11627;51.322;22.816;2023-01-08T00:35:00;35.38;;;18.05;;
22922;SDS011;11627;51.322;22.816;2023-01-08T00:37:26;32.65;;;15.10;;
22922;SDS011;11627;51.322;22.816;2023-01-08T00:39:52;35.55;;;17.70;;
22922;SDS011;11627;51.322;22.816;2023-01-08T00:42:18;32.30;;;15.50;;
22922;SDS011;11627;51.322;22.816;2023-01-08T00:44:44;35.03;;;16.27;;
22922;SDS011;11627;51.322;22.816;2023-01-08T00:47:11;32.58;;;15.77;;
22922;SDS011;11627;51.322;22.816;2023-01-08T00:49:37;33.83;;;16.02;;
22922;SDS011;11627;51.322;22.816;2023-01-08T00:52:04;31.23;;;15.93;;
22922;SDS011;11627;51.322;22.816;2023-01-08T00:54:31;28.35;;;14.02;;
22922;SDS011;11627;51.322;22.816;2023-01-08T00:56:56;31.77;;;15.30;;
22922;SDS011;11627;51.322;22.816;2023-01-08T00:59:22;34.17;;;14.60;;
22922;SDS011;11627;51.322;22.816;2023-01-08T01:01:48;33.63;;;14.80;;
22922;SDS011;11627;51.322;22.816;2023-01-08T01:04:13;32.85;;;13.80;;
22922;SDS011;11627;51.322;22.816;2023-01-08T01:06:39;33.72;;;13.82;;
22922;SDS011;11627;51.322;22.816;2023-01-08T01:09:06;27.77;;;14.00;;
22922;SDS011;11627;51.322;22.816;2023-01-08T01:11:32;29.73;;;12.85;;
22922;SDS011;11627;51.322;22.816;2023-01-08T01:13:59;27.00;;;12.82;;
22922;SDS011;11627;51.322;22.816;2023-01-08T01:16:26;27.85;;;12.80;;
22922;SDS011;11627;51.322;22.816;2023-01-08T01:18:52;26.20;;;11.95;;
22922;SDS011;11627;51.322;22.816;2023-01-08T01:21:29;27.27;;;12.60;;
22922;SDS011;11627;51.322;22.816;2023-01-08T01:23:56;26.40;;;12.32;;
22922;SDS011;11627;51.322;22.816;2023-01-08T01:26:24;25.52;;;12.77;;
22922;SDS011;11627;51.322;22.816;2023-01-08T01:28:51;22.17;;;12.05;;
22922;SDS011;11627;51.322;22.816;2023-01-08T01:31:18;26.08;;;13.70;;
22922;SDS011;11627;51.322;22.816;2023-01-08T01:33:45;22.52;;;11.60;;
22922;SDS011;11627;51.322;22.816;2023-01-08T01:36:12;24.42;;;11.63;;
22922;SDS011;11627;51.322;22.816;2023-01-08T01:38:42;20.10;;;10.20;;
22922;SDS011;11627;51.322;22.816;2023-01-08T01:41:31;23.83;;;10.77;;
22922;SDS011;11627;51.322;22.816;2023-01-08T01:47:50;20.08;;;10.30;;
22922;SDS011;11627;51.322;22.816;2023-01-08T01:50:07;25.00;;;11.40;;
22922;SDS011;11627;51.322;22.816;2023-01-08T01:52:37;19.00;;;10.45;;
22922;SDS011;11627;51.322;22.816;2023-01-08T01:55:09;22.25;;;10.82;;
22922;SDS011;11627;51.322;22.816;2023-01-08T01:57:37;20.02;;;10.80;;
22922;SDS011;11627;51.322;22.816;2023-01-08T02:00:04;22.52;;;11.40;;
22922;SDS011;11627;51.322;22.816;2023-01-08T02:02:33;26.40;;;12.88;;
22922;SDS011;11627;51.322;22.816;2023-01-08T02:04:59;22.65;;;11.57;;
22922;SDS011;11627;51.322;22.816;2023-01-08T02:11:04;20.08;;;9.35;;
22922;SDS011;11627;51.322;22.816;2023-01-08T02:13:21;18.40;;;9.35;;
22922;SDS011;11627;51.322;22.816;2023-01-08T02:15:54;21.38;;;9.85;;
22922;SDS011;11627;51.322;22.816;2023-01-08T02:21:08;21.48;;;10.05;;
22922;SDS011;11627;51.322;22.816;2023-01-08T02:29:19;22.65;;;10.98;;
22922;SDS011;11627;51.322;22.816;2023-01-08T02:31:49;20.05;;;10.10;;
22922;SDS011;11627;51.322;22.816;2023-01-08T02:34:16;22.65;;;11.13;;
22922;SDS011;11627;51.322;22.816;2023-01-08T02:36:55;20.88;;;9.82;;
22922;SDS011;11627;51.322;22.816;2023-01-08T02:47:29;19.60;;;9.27;;
22922;SDS011;11627;51.322;22.816;2023-01-08T02:50:01;20.75;;;9.25;;
22922;SDS011;11627;51.322;22.816;2023-01-08T02:52:54;20.38;;;9.45;;
22922;SDS011;11627;51.322;22.816;2023-01-08T02:55:40;17.85;;;9.00;;
22922;SDS011;11627;51.322;22.816;2023-01-08T02:58:10;18.98;;;9.20;;
22922;SDS011;11627;51.322;22.816;2023-01-08T03:00:37;19.85;;;9.07;;
22922;SDS011;11627;51.322;22.816;2023-01-08T03:03:20;18.17;;;9.63;;
22922;SDS011;11627;51.322;22.816;2023-01-08T03:05:50;21.52;;;9.00;;
22922;SDS011;11627;51.322;22.816;2023-01-08T03:08:19;20.80;;;9.32;;
22922;SDS011;11627;51.322;22.816;2023-01-08T03:10:47;18.75;;;8.65;;
22922;SDS011;11627;51.322;22.816;2023-01-08T03:13:23;19.17;;;9.65;;
22922;SDS011;11627;51.322;22.816;2023-01-08T03:15:59;19.67;;;8.85;;
22922;SDS011;11627;51.322;22.816;2023-01-08T03:18:36;19.63;;;9.05;;
22922;SDS011;11627;51.322;22.816;2023-01-08T03:21:06;17.90;;;8.30;;
22922;SDS011;11627;51.322;22.816;2023-01-08T03:23:34;16.92;;;8.05;;
22922;SDS011;11627;51.322;22.816;2023-01-08T03:26:02;20.23;;;8.70;;
22922;SDS011;11627;51.322;22.816;2023-01-08T03:28:32;18.33;;;8.25;;
22922;SDS011;11627;51.322;22.816;2023-01-08T03:31:02;18.20;;;8.60;;
22922;SDS011;11627;51.322;22.816;2023-01-08T03:33:29;19.77;;;9.50;;
22922;SDS011;11627;51.322;22.816;2023-01-08T03:35:57;16.92;;;8.30;;
22922;SDS011;11627;51.322;22.816;2023-01-08T03:38:30;17.55;;;8.38;;
22922;SDS011;11627;51.322;22.816;2023-01-08T03:41:00;18.33;;;7.55;;
22922;SDS011;11627;51.322;22.816;2023-01-08T03:43:32;19.17;;;8.50;;
22922;SDS011;11627;51.322;22.816;2023-01-08T03:46:00;18.50;;;8.70;;
22922;SDS011;11627;51.322;22.816;2023-01-08T03:48:29;18.63;;;9.07;;
22922;SDS011;11627;51.322;22.816;2023-01-08T03:50:57;17.83;;;8.73;;
22922;SDS011;11627;51.322;22.816;2023-01-08T03:53:23;19.42;;;8.73;;
22922;SDS011;11627;51.322;22.816;2023-01-08T03:55:49;19.30;;;9.25;;
22922;SDS011;11627;51.322;22.816;2023-01-08T03:58:16;18.90;;;8.48;;
22922;SDS011;11627;51.322;22.816;2023-01-08T04:00:43;21.83;;;9.60;;
22922;SDS011;11627;51.322;22.816;2023-01-08T04:03:09;18.20;;;8.25;;
22922;SDS011;11627;51.322;22.816;2023-01-08T04:05:36;19.40;;;8.90;;
22922;SDS011;11627;51.322;22.816;2023-01-08T04:08:02;21.45;;;8.02;;
22922;SDS011;11627;51.322;22.816;2023-01-08T04:10:28;18.75;;;8.23;;
22922;SDS011;11627;51.322;22.816;2023-01-08T04:12:53;20.10;;;8.52;;
22922;SDS011;11627;51.322;22.816;2023-01-08T04:15:20;17.70;;;9.20;;
22922;SDS011;11627;51.322;22.816;2023-01-08T04:17:46;16.63;;;8.52;;
22922;SDS011;11627;51.322;22.816;2023-01-08T04:20:11;15.70;;;8.18;;
22922;SDS011;11627;51.322;22.816;2023-01-08T04:22:37;21.15;;;9.27;;
22922;SDS011;11627;51.322;22.816;2023-01-08T04:25:03;17.40;;;8.45;;
22922;SDS011;11627;51.322;22.816;2023-01-08T04:27:29;16.27;;;8.00;;
22922;SDS011;11627;51.322;22.816;2023-01-08T04:29:54;16.83;;;7.35;;
22922;SDS011;11627;51.322;22.816;2023-01-08T04:32:21;15.13;;;7.57;;
22922;SDS011;11627;51.322;22.816;2023-01-08T04:34:48;13.90;;;7.22;;
22922;SDS011;11627;51.322;22.816;2023-01-08T04:37:14;15.30;;;7.20;;
22922;SDS011;11627;51.322;22.816;2023-01-08T04:39:39;14.93;;;6.93;;
22922;SDS011;11627;51.322;22.816;2023-01-08T04:42:05;14.30;;;7.10;;
22922;SDS011;11627;51.322;22.816;2023-01-08T04:44:30;15.45;;;7.25;;
22922;SDS011;11627;51.322;22.816;2023-01-08T04:46:57;12.73;;;6.88;;
22922;SDS011;11627;51.322;22.816;2023-01-08T04:49:23;14.95;;;6.38;;
22922;SDS011;11627;51.322;22.816;2023-01-08T04:51:49;16.98;;;6.80;;
22922;SDS011;11627;51.322;22.816;2023-01-08T04:54:14;14.30;;;7.00;;
22922;SDS011;11627;51.322;22.816;2023-01-08T04:56:40;13.88;;;6.78;;
22922;SDS011;11627;51.322;22.816;2023-01-08T04:59:05;15.80;;;6.30;;
22922;SDS011;11627;51.322;22.816;2023-01-08T05:01:33;15.10;;;7.38;;
22922;SDS011;11627;51.322;22.816;2023-01-08T05:04:00;14.60;;;6.90;;
22922;SDS011;11627;51.322;22.816;2023-01-08T05:06:28;14.30;;;6.85;;
22922;SDS011;11627;51.322;22.816;2023-01-08T05:08:55;10.48;;;6.05;;
22922;SDS011;11627;51.322;22.816;2023-01-08T05:11:21;17.48;;;6.65;;
22922;SDS011;11627;51.322;22.816;2023-01-08T05:13:49;14.02;;;6.40;;
22922;SDS011;11627;51.322;22.816;2023-01-08T05:16:16;14.73;;;6.18;;
22922;SDS011;11627;51.322;22.816;2023-01-08T05:18:43;13.80;;;6.43;;
22922;SDS011;11627;51.322;22.816;2023-01-08T05:21:10;14.52;;;6.50;;
22922;SDS011;11627;51.322;22.816;2023-01-08T05:23:38;14.50;;;6.90;;
22922;SDS011;11627;51.322;22.816;2023-01-08T05:26:09;16.17;;;7.00;;
22922;SDS011;11627;51.322;22.816;2023-01-08T05:28:34;14.73;;;6.78;;
22922;SDS011;11627;51.322;22.816;2023-01-08T05:31:00;18.65;;;6.18;;
22922;SDS011;11627;51.322;22.816;2023-01-08T05:33:27;15.82;;;6.88;;
22922;SDS011;11627;51.322;22.816;2023-01-08T05:35:54;14.13;;;6.65;;
22922;SDS011;11627;51.322;22.816;2023-01-08T05:38:21;13.32;;;6.90;;
22922;SDS011;11627;51.322;22.816;2023-01-08T05:40:46;16.05;;;7.30;;
22922;SDS011;11627;51.322;22.816;2023-01-08T05:43:12;15.85;;;7.07;;
22922;SDS011;11627;51.322;22.816;2023-01-08T05:45:38;14.93;;;7.05;;
22922;SDS011;11627;51.322;22.816;2023-01-08T05:48:04;14.90;;;7.25;;
22922;SDS011;11627;51.322;22.816;2023-01-08T05:50:33;16.65;;;7.53;;
22922;SDS011;11627;51.322;22.816;2023-01-08T05:52:59;15.48;;;7.70;;
22922;SDS011;11627;51.322;22.816;2023-01-08T05:55:29;16.65;;;7.90;;
22922;SDS011;11627;51.322;22.816;2023-01-08T05:57:59;15.65;;;7.53;;
22922;SDS011;11627;51.322;22.816;2023-01-08T06:00:25;14.70;;;7.75;;
22922;SDS011;11627;51.322;22.816;2023-01-08T06:02:51;12.90;;;7.20;;
22922;SDS011;11627;51.322;22.816;2023-01-08T06:05:18;14.82;;;7.25;;
22922;SDS011;11627;51.322;22.816;2023-01-08T06:07:43;16.02;;;7.55;;
22922;SDS011;11627;51.322;22.816;2023-01-08T06:10:09;15.65;;;7.63;;
22922;SDS011;11627;51.322;22.816;2023-01-08T06:12:35;17.90;;;7.93;;
22922;SDS011;11627;51.322;22.816;2023-01-08T06:15:01;19.10;;;11.02;;
22922;SDS011;11627;51.322;22.816;2023-01-08T06:17:27;21.13;;;10.07;;
22922;SDS011;11627;51.322;22.816;2023-01-08T06:19:54;19.65;;;8.88;;
22922;SDS011;11627;51.322;22.816;2023-01-08T06:22:20;17.70;;;8.38;;
22922;SDS011;11627;51.322;22.816;2023-01-08T06:24:46;15.65;;;7.82;;
22922;SDS011;11627;51.322;22.816;2023-01-08T06:27:12;17.08;;;7.55;;
22922;SDS011;11627;51.322;22.816;2023-01-08T06:29:37;17.20;;;8.40;;
22922;SDS011;11627;51.322;22.816;2023-01-08T06:32:03;17.00;;;7.55;;
22922;SDS011;11627;51.322;22.816;2023-01-08T06:34:29;17.98;;;8.75;;
22922;SDS011;11627;51.322;22.816;2023-01-08T06:36:54;17.40;;;8.75;;
22922;SDS011;11627;51.322;22.816;2023-01-08T06:39:20;18.50;;;8.25;;
22922;SDS011;11627;51.322;22.816;2023-01-08T06:41:45;14.32;;;7.93;;
22922;SDS011;11627;51.322;22.816;2023-01-08T06:44:11;15.70;;;7.85;;
22922;SDS011;11627;51.322;22.816;2023-01-08T06:46:37;18.75;;;8.85;;
22922;SDS011;11627;51.322;22.816;2023-01-08T06:49:08;17.20;;;7.90;;
22922;SDS011;11627;51.322;22.816;2023-01-08T06:51:37;17.80;;;8.05;;
22922;SDS011;11627;51.322;22.816;2023-01-08T06:54:04;16.48;;;8.45;;
22922;SDS011;11627;51.322;22.816;2023-01-08T06:56:31;16.50;;;8.02;;
22922;SDS011;11627;51.322;22.816;2023-01-08T06:58:56;16.60;;;8.63;;
22922;SDS011;11627;51.322;22.816;2023-01-08T07:01:23;15.18;;;7.85;;
22922;SDS011;11627;51.322;22.816;2023-01-08T07:03:50;16.98;;;8.65;;
22922;SDS011;11627;51.322;22.816;2023-01-08T07:06:21;20.33;;;8.18;;
22922;SDS011;11627;51.322;22.816;2023-01-08T07:08:47;15.73;;;7.80;;
22922;SDS011;11627;51.322;22.816;2023-01-08T07:11:13;16.38;;;7.90;;
22922;SDS011;11627;51.322;22.816;2023-01-08T07:13:39;15.70;;;8.40;;
22922;SDS011;11627;51.322;22.816;2023-01-08T07:16:06;20.45;;;8.32;;
22922;SDS011;11627;51.322;22.816;2023-01-08T07:18:34;20.60;;;9.23;;
22922;SDS011;11627;51.322;22.816;2023-01-08T07:21:01;17.73;;;8.55;;
22922;SDS011;11627;51.322;22.816;2023-01-08T07:23:27;16.65;;;8.68;;
22922;SDS011;11627;51.322;22.816;2023-01-08T07:25:58;16.73;;;7.70;;
22922;SDS011;11627;51.322;22.816;2023-01-08T07:28:28;20.80;;;9.15;;
22922;SDS011;11627;51.322;22.816;2023-01-08T07:30:53;16.27;;;8.20;;
22922;SDS011;11627;51.322;22.816;2023-01-08T07:33:19;16.08;;;8.48;;
22922;SDS011;11627;51.322;22.816;2023-01-08T07:35:51;17.40;;;8.07;;
22922;SDS011;11627;51.322;22.816;2023-01-08T07:38:18;15.20;;;8.23;;
22922;SDS011;11627;51.322;22.816;2023-01-08T07:40:43;15.02;;;7.72;;
22922;SDS011;11627;51.322;22.816;2023-01-08T07:43:10;16.15;;;8.00;;
22922;SDS011;11627;51.322;22.816;2023-01-08T07:45:38;15.32;;;8.05;;
22922;SDS011;11627;51.322;22.816;2023-01-08T07:48:04;17.08;;;8.10;;
22922;SDS011;11627;51.322;22.816;2023-01-08T07:50:34;14.25;;;7.75;;
22922;SDS011;11627;51.322;22.816;2023-01-08T07:53:02;13.88;;;7.30;;
22922;SDS011;11627;51.322;22.816;2023-01-08T07:55:29;16.52;;;8.55;;
22922;SDS011;11627;51.322;22.816;2023-01-08T07:57:54;16.23;;;7.90;;
22922;SDS011;11627;51.322;22.816;2023-01-08T08:00:22;13.80;;;7.45;;
22922;SDS011;11627;51.322;22.816;2023-01-08T08:02:49;17.67;;;8.68;;
22922;SDS011;11627;51.322;22.816;2023-01-08T08:05:14;15.90;;;8.90;;
22922;SDS011;11627;51.322;22.816;2023-01-08T08:07:42;16.13;;;7.63;;
22922;SDS011;11627;51.322;22.816;2023-01-08T08:10:08;14.52;;;7.88;;
22922;SDS011;11627;51.322;22.816;2023-01-08T08:12:35;14.40;;;8.35;;
22922;SDS011;11627;51.322;22.816;2023-01-08T08:15:01;15.18;;;7.70;;
22922;SDS011;11627;51.322;22.816;2023-01-08T08:17:27;14.82;;;8.02;;
22922;SDS011;11627;51.322;22.816;2023-01-08T08:19:53;16.40;;;8.43;;
22922;SDS011;11627;51.322;22.816;2023-01-08T08:22:19;18.35;;;8.98;;
22922;SDS011;11627;51.322;22.816;2023-01-08T08:24:45;17.73;;;8.77;;
22922;SDS011;11627;51.322;22.816;2023-01-08T08:27:11;19.13;;;9.70;;
22922;SDS011;11627;51.322;22.816;2023-01-08T08:29:36;18.35;;;9.07;;
22922;SDS011;11627;51.322;22.816;2023-01-08T08:32:02;18.95;;;8.80;;
22922;SDS011;11627;51.322;22.816;2023-01-08T08:34:28;24.33;;;9.90;;
22922;SDS011;11627;51.322;22.816;2023-01-08T08:36:53;17.90;;;8.93;;
22922;SDS011;11627;51.322;22.816;2023-01-08T08:39:19;17.65;;;9.50;;
22922;SDS011;11627;51.322;22.816;2023-01-08T08:41:44;15.65;;;8.57;;
22922;SDS011;11627;51.322;22.816;2023-01-08T08:44:11;16.38;;;8.75;;
22922;SDS011;11627;51.322;22.816;2023-01-08T08:46:37;18.40;;;8.52;;
22922;SDS011;11627;51.322;22.816;2023-01-08T08:49:03;15.30;;;8.55;;
22922;SDS011;11627;51.322;22.816;2023-01-08T08:51:29;21.90;;;10.25;;
22922;SDS011;11627;51.322;22.816;2023-01-08T08:53:57;18.38;;;8.93;;
22922;SDS011;11627;51.322;22.816;2023-01-08T08:56:22;18.52;;;9.07;;
22922;SDS011;11627;51.322;22.816;2023-01-08T08:58:48;17.55;;;9.07;;
22922;SDS011;11627;51.322;22.816;2023-01-08T09:01:15;18.00;;;8.43;;
22922;SDS011;11627;51.322;22.816;2023-01-08T09:03:41;18.33;;;8.88;;
22922;SDS011;11627;51.322;22.816;2023-01-08T09:06:11;16.30;;;8.30;;
22922;SDS011;11627;51.322;22.816;2023-01-08T09:08:37;16.83;;;8.50;;
22922;SDS011;11627;51.322;22.816;2023-01-08T09:11:03;19.25;;;8.73;;
22922;SDS011;11627;51.322;22.816;2023-01-08T09:13:30;16.17;;;8.50;;
22922;SDS011;11627;51.322;22.816;2023-01-08T09:16:00;15.57;;;8.95;;
22922;SDS011;11627;51.322;22.816;2023-01-08T09:18:26;18.13;;;9.30;;
22922;SDS011;11627;51.322;22.816;2023-01-08T09:20:53;18.02;;;9.45;;
22922;SDS011;11627;51.322;22.816;2023-01-08T09:23:19;19.45;;;9.65;;
22922;SDS011;11627;51.322;22.816;2023-01-08T09:25:45;18.58;;;8.90;;
22922;SDS011;11627;51.322;22.816;2023-01-08T09:28:12;16.30;;;8.10;;
22922;SDS011;11627;51.322;22.816;2023-01-08T09:30:38;16.67;;;8.50;;
22922;SDS011;11627;51.322;22.816;2023-01-08T09:33:04;27.65;;;11.50;;
22922;SDS011;11627;51.322;22.816;2023-01-08T09:35:32;20.90;;;8.70;;
22922;SDS011;11627;51.322;22.816;2023-01-08T09:37:58;15.55;;;8.02;;
22922;SDS011;11627;51.322;22.816;2023-01-08T09:40:34;17.23;;;8.40;;
22922;SDS011;11627;51.322;22.816;2023-01-08T09:43:06;19.83;;;9.00;;
22922;SDS011;11627;51.322;22.816;2023-01-08T09:45:38;24.10;;;10.23;;
22922;SDS011;11627;51.322;22.816;2023-01-08T09:48:06;31.15;;;10.65;;
22922;SDS011;11627;51.322;22.816;2023-01-08T09:50:37;32.70;;;11.07;;
22922;SDS011;11627;51.322;22.816;2023-01-08T09:53:03;20.92;;;9.32;;
22922;SDS011;11627;51.322;22.816;2023-01-08T09:55:33;213.63;;;49.75;;
22922;SDS011;11627;51.322;22.816;2023-01-08T09:58:00;33.10;;;13.40;;
22922;SDS011;11627;51.322;22.816;2023-01-08T10:00:27;21.42;;;10.07;;
22922;SDS011;11627;51.322;22.816;2023-01-08T10:02:56;17.08;;;8.43;;
22922;SDS011;11627;51.322;22.816;2023-01-08T10:05:22;20.08;;;10.30;;
22922;SDS011;11627;51.322;22.816;2023-01-08T10:07:50;25.60;;;10.57;;
22922;SDS011;11627;51.322;22.816;2023-01-08T10:10:19;20.13;;;8.75;;
22922;SDS011;11627;51.322;22.816;2023-01-08T10:12:49;15.30;;;8.40;;
22922;SDS011;11627;51.322;22.816;2023-01-08T10:15:17;23.70;;;10.02;;
22922;SDS011;11627;51.322;22.816;2023-01-08T10:17:47;17.25;;;8.88;;
22922;SDS011;11627;51.322;22.816;2023-01-08T10:20:35;19.15;;;9.82;;
22922;SDS011;11627;51.322;22.816;2023-01-08T10:23:09;20.23;;;9.70;;
22922;SDS011;11627;51.322;22.816;2023-01-08T10:26:01;21.88;;;9.57;;
22922;SDS011;11627;51.322;22.816;2023-01-08T10:28:29;17.42;;;9.15;;
22922;SDS011;11627;51.322;22.816;2023-01-08T10:31:07;24.42;;;10.45;;
22922;SDS011;11627;51.322;22.816;2023-01-08T10:33:45;22.92;;;10.07;;
22922;SDS011;11627;51.322;22.816;2023-01-08T10:36:14;20.67;;;10.18;;
22922;SDS011;11627;51.322;22.816;2023-01-08T10:38:49;17.95;;;9.25;;
22922;SDS011;11627;51.322;22.816;2023-01-08T10:41:18;25.70;;;12.05;;
22922;SDS011;11627;51.322;22.816;2023-01-08T10:43:59;27.83;;;11.80;;
22922;SDS011;11627;51.322;22.816;2023-01-08T10:46:43;22.58;;;9.57;;
22922;SDS011;11627;51.322;22.816;2023-01-08T10:51:50;16.73;;;9.35;;
22922;SDS011;11627;51.322;22.816;2023-01-08T10:54:28;16.50;;;8.60;;
22922;SDS011;11627;51.322;22.816;2023-01-08T10:57:00;17.38;;;9.20;;
22922;SDS011;11627;51.322;22.816;2023-01-08T10:59:26;16.67;;;9.63;;
22922;SDS011;11627;51.322;22.816;2023-01-08T11:01:53;21.05;;;9.38;;
22922;SDS011;11627;51.322;22.816;2023-01-08T11:04:30;22.90;;;10.48;;
22922;SDS011;11627;51.322;22.816;2023-01-08T11:07:01;19.35;;;9.93;;
22922;SDS011;11627;51.322;22.816;2023-01-08T11:09:33;23.95;;;11.00;;
22922;SDS011;11627;51.322;22.816;2023-01-08T11:12:17;28.42;;;12.93;;
22922;SDS011;11627;51.322;22.816;2023-01-08T11:14:58;23.25;;;11.27;;
22922;SDS011;11627;51.322;22.816;2023-01-08T11:17:24;25.42;;;12.10;;
22922;SDS011;11627;51.322;22.816;2023-01-08T11:19:51;23.17;;;11.23;;
22922;SDS011;11627;51.322;22.816;2023-01-08T11:22:21;33.15;;;17.13;;
22922;SDS011;11627;51.322;22.816;2023-01-08T11:24:49;24.63;;;13.60;;
22922;SDS011;11627;51.322;22.816;2023-01-08T11:35:28;19.80;;;9.95;;
22922;SDS011;11627;51.322;22.816;2023-01-08T11:38:10;19.90;;;9.68;;
22922;SDS011;11627;51.322;22.816;2023-01-08T11:59:45;26.60;;;12.05;;
22922;SDS011;11627;51.322;22.816;2023-01-08T12:05:51;20.05;;;10.52;;
22922;SDS011;11627;51.322;22.816;2023-01-08T12:11:31;26.80;;;12.10;;
22922;SDS011;11627;51.322;22.816;2023-01-08T12:27:58;24.88;;;11.32;;
22922;SDS011;11627;51.322;22.816;2023-01-08T12:33:38;20.40;;;10.75;;
22922;SDS011;11627;51.322;22.816;2023-01-08T12:36:10;21.23;;;11.00;;
22922;SDS011;11627;51.322;22.816;2023-01-08T12:38:42;25.35;;;12.30;;
22922;SDS011;11627;51.322;22.816;2023-01-08T12:41:13;21.45;;;11.27;;
22922;SDS011;11627;51.322;22.816;2023-01-08T12:43:51;26.85;;;12.55;;
22922;SDS011;11627;51.322;22.816;2023-01-08T12:46:30;25.02;;;11.30;;
22922;SDS011;11627;51.322;22.816;2023-01-08T12:48:59;28.55;;;13.02;;
22922;SDS011;11627;51.322;22.816;2023-01-08T12:51:38;27.52;;;12.20;;
22922;SDS011;11627;51.322;22.816;2023-01-08T12:57:11;22.67;;;11.23;;
22922;SDS011;11627;51.322;22.816;2023-01-08T13:02:55;23.98;;;11.38;;
22922;SDS011;11627;51.322;22.816;2023-01-08T13:07:55;26.02;;;11.95;;
22922;SDS011;11627;51.322;22.816;2023-01-08T13:10:33;29.50;;;13.45;;
22922;SDS011;11627;51.322;22.816;2023-01-08T13:13:04;25.77;;;12.38;;
22922;SDS011;11627;51.322;22.816;2023-01-08T13:15:33;32.45;;;13.35;;
22922;SDS011;11627;51.322;22.816;2023-01-08T13:18:06;40.25;;;16.42;;
22922;SDS011;11627;51.322;22.816;2023-01-08T13:20:40;31.27;;;13.60;;
22922;SDS011;11627;51.322;22.816;2023-01-08T13:23:17;27.73;;;12.85;;
22922;SDS011;11627;51.322;22.816;2023-01-08T13:25:52;29.10;;;13.05;;
22922;SDS011;11627;51.322;22.816;2023-01-08T13:28:40;26.15;;;12.80;;
22922;SDS011;11627;51.322;22.816;2023-01-08T13:33:48;27.52;;;13.15;;
22922;SDS011;11627;51.322;22.816;2023-01-08T13:36:25;29.98;;;12.57;;
22922;SDS011;11627;51.322;22.816;2023-01-08T13:39:02;27.38;;;12.57;;
22922;SDS011;11627;51.322;22.816;2023-01-08T13:41:30;28.23;;;13.40;;
22922;SDS011;11627;51.322;22.816;2023-01-08T13:44:15;29.67;;;13.35;;
22922;SDS011;11627;51.322;22.816;2023-01-08T13:46:41;29.25;;;13.27;;
22922;SDS011;11627;51.322;22.816;2023-01-08T13:49:08;36.13;;;17.52;;
22922;SDS011;11627;51.322;22.816;2023-01-08T13:51:47;29.67;;;14.48;;
22922;SDS011;11627;51.322;22.816;2023-01-08T13:54:21;34.55;;;17.00;;
22922;SDS011;11627;51.322;22.816;2023-01-08T13:56:54;33.92;;;15.10;;
22922;SDS011;11627;51.322;22.816;2023-01-08T13:59:42;32.03;;;15.88;;
22922;SDS011;11627;51.322;22.816;2023-01-08T14:02:20;36.83;;;16.77;;
22922;SDS011;11627;51.322;22.816;2023-01-08T14:04:49;42.97;;;19.30;;
22922;SDS011;11627;51.322;22.816;2023-01-08T14:07:15;46.67;;;19.48;;
22922;SDS011;11627;51.322;22.816;2023-01-08T14:09:41;46.40;;;21.52;;
22922;SDS011;11627;51.322;22.816;2023-01-08T14:12:07;36.35;;;16.00;;
22922;SDS011;11627;51.322;22.816;2023-01-08T14:14:40;35.55;;;15.00;;
22922;SDS011;11627;51.322;22.816;2023-01-08T14:17:12;39.42;;;17.92;;
22922;SDS011;11627;51.322;22.816;2023-01-08T14:19:40;42.15;;;19.90;;
22922;SDS011;11627;51.322;22.816;2023-01-08T14:22:07;44.97;;;21.23;;
22922;SDS011;11627;51.322;22.816;2023-01-08T14:24:41;82.30;;;32.95;;
22922;SDS011;11627;51.322;22.816;2023-01-08T14:27:18;61.25;;;27.45;;
22922;SDS011;11627;51.322;22.816;2023-01-08T14:29:51;48.80;;;22.40;;
22922;SDS011;11627;51.322;22.816;2023-01-08T14:32:20;39.53;;;19.70;;
22922;SDS011;11627;51.322;22.816;2023-01-08T14:34:49;39.42;;;17.90;;
22922;SDS011;11627;51.322;22.816;2023-01-08T14:37:16;43.67;;;17.20;;
22922;SDS011;11627;51.322;22.816;2023-01-08T14:39:42;38.45;;;17.92;;
22922;SDS011;11627;51.322;22.816;2023-01-08T14:45:03;39.08;;;17.17;;
22922;SDS011;11627;51.322;22.816;2023-01-08T14:47:39;37.33;;;17.63;;
22922;SDS011;11627;51.322;22.816;2023-01-08T14:50:26;42.28;;;20.88;;
22922;SDS011;11627;51.322;22.816;2023-01-08T14:53:02;40.90;;;18.17;;
22922;SDS011;11627;51.322;22.816;2023-01-08T14:55:32;41.97;;;18.35;;
22922;SDS011;11627;51.322;22.816;2023-01-08T14:58:01;37.58;;;18.58;;
22922;SDS011;11627;51.322;22.816;2023-01-08T15:00:28;43.60;;;19.08;;
22922;SDS011;11627;51.322;22.816;2023-01-08T15:02:56;39.90;;;16.92;;
22922;SDS011;11627;51.322;22.816;2023-01-08T15:05:29;38.13;;;16.95;;
22922;SDS011;11627;51.322;22.816;2023-01-08T15:11:24;40.30;;;17.33;;
22922;SDS011;11627;51.322;22.816;2023-01-08T15:13:50;37.65;;;16.92;;
22922;SDS011;11627;51.322;22.816;2023-01-08T15:16:24;37.08;;;16.08;;
22922;SDS011;11627;51.322;22.816;2023-01-08T15:19:09;37.72;;;17.38;;
22922;SDS011;11627;51.322;22.816;2023-01-08T15:21:50;43.25;;;19.17;;
22922;SDS011;11627;51.322;22.816;2023-01-08T15:24:36;38.63;;;16.48;;
22922;SDS011;11627;51.322;22.816;2023-01-08T15:27:05;39.95;;;16.77;;
22922;SDS011;11627;51.322;22.816;2023-01-08T15:29:45;36.67;;;17.02;;
22922;SDS011;11627;51.322;22.816;2023-01-08T15:34:41;39.05;;;17.58;;
22922;SDS011;11627;51.322;22.816;2023-01-08T15:37:09;45.35;;;19.17;;
22922;SDS011;11627;51.322;22.816;2023-01-08T15:39:35;41.05;;;18.85;;
22922;SDS011;11627;51.322;22.816;2023-01-08T15:42:10;43.72;;;19.77;;
22922;SDS011;11627;51.322;22.816;2023-01-08T15:45:21;41.38;;;18.15;;
22922;SDS011;11627;51.322;22.816;2023-01-08T15:47:57;46.05;;;18.65;;
22922;SDS011;11627;51.322;22.816;2023-01-08T15:50:24;41.55;;;18.33;;
22922;SDS011;11627;51.322;22.816;2023-01-08T15:52:50;43.05;;;19.38;;
22922;SDS011;11627;51.322;22.816;2023-01-08T15:55:18;39.63;;;17.90;;
22922;SDS011;11627;51.322;22.816;2023-01-08T15:57:45;43.97;;;18.60;;
22922;SDS011;11627;51.322;22.816;2023-01-08T16:00:12;41.20;;;18.95;;
22922;SDS011;11627;51.322;22.816;2023-01-08T16:02:42;45.42;;;18.05;;
22922;SDS011;11627;51.322;22.816;2023-01-08T16:05:09;41.40;;;18.50;;